Time;durP1;ratioP1;P1;durP2;ratioP2;P2;SDS_P1;SDS_P2;PMS_P1;PMS_P2;Temp;Humidity;BMP_temperature;BMP_pressure;BME280_temperature;BME280_humidity;BME280_pressure;Samples;Min_cycle;Max_cycle;Signal;HPM_P1;HPM_P2
2024/03/11 00:01:50;;;;;;;23.50;13.18;;;333.40;2329.60;;;;;;5073984;28;20082;-75
2024/03/11 00:04:15;;;;;;;25.90;12.25;;;333.40;2329.60;;;;;;5074074;28;20472;-76
2024/03/11 00:06:44;;;;;;;27.52;13.60;;;333.30;2329.60;;;;;;5073985;28;20081;-75
2024/03/11 00:09:28;;;;;;;21.95;11.80;;;333.40;2329.60;;;;;;5074088;28;20465;-75
2024/03/11 00:11:57;;;;;;;22.48;13.45;;;333.40;2329.60;;;;;;5074188;28;20103;-76
2024/03/11 00:14:28;;;;;;;19.88;13.35;;;333.40;2329.60;;;;;;5074093;28;20485;-75
2024/03/11 00:16:56;;;;;;;27.30;14.23;;;333.30;2329.60;;;;;;5073910;28;20021;-76
2024/03/11 00:19:23;;;;;;;23.05;13.63;;;333.30;2329.60;;;;;;5073282;28;20100;-76
2024/03/11 00:21:59;;;;;;;29.67;14.00;;;333.30;2329.60;;;;;;5073896;28;20069;-75
2024/03/11 00:24:25;;;;;;;27.67;15.27;;;333.20;2329.60;;;;;;5073623;28;20089;-76
2024/03/11 00:26:52;;;;;;;26.75;13.88;;;333.30;2329.60;;;;;;5073762;28;20112;-75
2024/03/11 00:29:19;;;;;;;22.27;13.27;;;333.30;2329.60;;;;;;5073450;28;20022;-76
2024/03/11 00:31:46;;;;;;;27.38;13.45;;;333.30;2329.60;;;;;;5073554;28;20032;-76
2024/03/11 00:34:14;;;;;;;27.00;14.80;;;333.40;2329.60;;;;;;5073596;28;20017;-76
2024/03/11 00:36:40;;;;;;;22.98;13.07;;;333.40;2329.60;;;;;;5087132;28;20465;-75
2024/03/11 00:39:08;;;;;;;26.95;14.27;;;333.40;2329.60;;;;;;5086068;28;20037;-75
2024/03/11 00:41:35;;;;;;;25.13;13.23;;;333.40;2329.60;;;;;;5073570;28;20032;-75
2024/03/11 00:44:00;;;;;;;20.52;13.02;;;333.40;2329.60;;;;;;5073517;28;20028;-75
2024/03/11 00:46:26;;;;;;;21.67;13.85;;;333.40;2329.60;;;;;;5073561;28;20028;-76
2024/03/11 00:48:52;;;;;;;22.70;13.73;;;333.40;2329.60;;;;;;5073285;28;20024;-76
2024/03/11 00:51:21;;;;;;;22.90;13.82;;;333.40;2329.60;;;;;;5073378;28;20021;-75
2024/03/11 00:53:47;;;;;;;25.08;15.15;;;333.40;2329.60;;;;;;5060772;28;20013;-75
2024/03/11 00:56:13;;;;;;;23.65;14.40;;;333.40;2329.60;;;;;;5073282;28;20103;-75
2024/03/11 00:58:39;;;;;;;26.23;15.40;;;333.40;2329.60;;;;;;5073261;28;20048;-76
2024/03/11 01:01:05;;;;;;;21.88;13.18;;;333.40;2329.60;;;;;;5072062;28;20033;-75
2024/03/11 01:03:31;;;;;;;26.67;13.80;;;333.40;2329.60;;;;;;5073185;28;20017;-75
2024/03/11 01:06:00;;;;;;;29.33;14.68;;;333.30;2329.60;;;;;;5073048;28;20075;-76
2024/03/11 01:08:29;;;;;;;21.33;13.35;;;333.40;2329.60;;;;;;5073345;28;20491;-75
2024/03/11 01:10:58;;;;;;;24.23;13.93;;;333.40;2329.60;;;;;;5073030;28;20024;-75
2024/03/11 01:13:24;;;;;;;21.00;12.02;;;333.30;2329.60;;;;;;5073393;28;20032;-75
2024/03/11 01:15:50;;;;;;;25.05;14.82;;;333.30;2329.60;;;;;;5073068;28;20024;-76
2024/03/11 01:18:17;;;;;;;25.42;13.95;;;333.30;2329.60;;;;;;5073045;28;20023;-75
2024/03/11 01:20:46;;;;;;;24.15;14.07;;;333.40;2329.60;;;;;;5071682;28;20043;-75
2024/03/11 01:23:12;;;;;;;20.27;12.85;;;333.40;2329.60;;;;;;5082595;28;20024;-76
2024/03/11 01:25:38;;;;;;;19.45;11.43;;;333.40;2329.60;;;;;;5076573;28;20126;-75
2024/03/11 01:28:07;;;;;;;23.35;13.68;;;333.40;2329.60;;;;;;5071672;28;20027;-75
2024/03/11 01:30:35;;;;;;;20.00;12.18;;;333.40;2329.60;;;;;;5072545;28;20032;-75
2024/03/11 01:33:04;;;;;;;23.10;13.77;;;333.40;2329.60;;;;;;5074546;28;20443;-75
2024/03/11 01:35:30;;;;;;;21.02;13.77;;;333.40;2329.60;;;;;;5077052;28;20074;-75
2024/03/11 01:37:56;;;;;;;28.30;13.63;;;333.40;2329.60;;;;;;5077015;28;20176;-74
2024/03/11 01:40:22;;;;;;;20.52;12.65;;;333.40;2329.60;;;;;;5076740;28;20051;-75
2024/03/11 01:42:50;;;;;;;21.65;12.85;;;333.40;2329.60;;;;;;5076871;28;20040;-75
2024/03/11 01:45:16;;;;;;;21.48;12.55;;;333.30;2329.60;;;;;;5076654;28;20031;-75
2024/03/11 01:47:43;;;;;;;24.60;14.00;;;333.30;2329.60;;;;;;5076558;28;20480;-76
2024/03/11 01:50:13;;;;;;;24.48;12.80;;;333.40;2329.60;;;;;;5076787;28;20538;-75
2024/03/11 01:52:59;;;;;;;22.48;13.02;;;333.40;2329.60;;;;;;5076858;28;20025;-75
2024/03/11 01:55:26;;;;;;;22.33;13.93;;;333.40;2329.60;;;;;;5076695;28;20013;-75
2024/03/11 01:57:54;;;;;;;22.95;13.00;;;333.40;2329.60;;;;;;5076582;28;20028;-75
2024/03/11 02:00:21;;;;;;;23.50;13.23;;;333.40;2329.60;;;;;;5076220;28;20017;-76
2024/03/11 02:02:48;;;;;;;25.42;14.20;;;333.40;2329.60;;;;;;5076377;28;20032;-75
2024/03/11 02:05:14;;;;;;;22.00;12.75;;;333.40;2329.60;;;;;;5076404;28;20381;-76
2024/03/11 02:07:56;;;;;;;22.65;12.52;;;333.40;2329.60;;;;;;5076494;28;20020;-75
2024/03/11 02:10:23;;;;;;;22.48;13.05;;;333.40;2329.60;;;;;;5076320;28;20020;-75
2024/03/11 02:12:49;;;;;;;24.98;14.70;;;333.40;2329.60;;;;;;5076038;28;20009;-75
2024/03/11 02:15:17;;;;;;;20.70;13.25;;;333.40;2329.60;;;;;;5076210;28;20025;-75
2024/03/11 02:17:44;;;;;;;21.13;12.25;;;333.40;2329.60;;;;;;5075857;28;20021;-75
2024/03/11 02:20:17;;;;;;;22.98;13.45;;;333.40;2329.60;;;;;;5075368;28;20381;-75
2024/03/11 02:22:52;;;;;;;22.73;12.43;;;333.40;2329.60;;;;;;5075960;28;20534;-75
2024/03/11 02:25:26;;;;;;;23.23;13.65;;;333.30;2329.60;;;;;;5076124;28;20060;-76
2024/03/11 02:27:54;;;;;;;21.75;13.40;;;333.40;2329.60;;;;;;5063059;28;20107;-75
2024/03/11 02:30:21;;;;;;;20.85;11.13;;;333.30;2329.60;;;;;;5075771;28;20413;-76
2024/03/11 02:32:47;;;;;;;19.40;12.05;;;333.40;2329.60;;;;;;5076004;28;20082;-76
2024/03/11 02:35:14;;;;;;;22.83;11.82;;;333.40;2329.60;;;;;;5075692;28;20016;-75
2024/03/11 02:37:43;;;;;;;19.85;11.02;;;333.40;2329.60;;;;;;5075876;28;20048;-75
2024/03/11 02:40:10;;;;;;;19.20;11.70;;;333.50;2329.60;;;;;;5075833;28;20492;-75
2024/03/11 02:42:36;;;;;;;19.58;11.40;;;333.50;2329.60;;;;;;5075160;28;20024;-75
2024/03/11 02:45:07;;;;;;;21.23;12.18;;;333.60;2329.60;;;;;;5075622;28;20040;-76
2024/03/11 02:47:34;;;;;;;20.52;12.68;;;333.50;2329.60;;;;;;5075647;28;20025;-75
2024/03/11 02:50:00;;;;;;;23.63;13.48;;;333.50;2329.60;;;;;;5075728;28;20020;-75
2024/03/11 02:52:29;;;;;;;27.08;14.30;;;333.50;2329.60;;;;;;5075790;28;20471;-76
2024/03/11 02:54:55;;;;;;;22.30;11.40;;;333.50;2329.60;;;;;;5075690;28;20048;-75
2024/03/11 02:57:22;;;;;;;20.02;11.18;;;333.50;2329.60;;;;;;5075498;28;20060;-75
2024/03/11 02:59:50;;;;;;;20.52;11.85;;;333.60;2329.60;;;;;;5075734;28;20024;-75
2024/03/11 03:02:16;;;;;;;18.95;11.73;;;333.50;2329.60;;;;;;5077005;28;20032;-75
2024/03/11 03:04:42;;;;;;;17.88;10.43;;;333.60;2329.60;;;;;;5076244;28;20099;-75
2024/03/11 03:07:15;;;;;;;21.63;11.23;;;333.60;2329.60;;;;;;5075323;28;20477;-76
2024/03/11 03:09:41;;;;;;;18.98;10.90;;;333.60;2329.60;;;;;;5075213;28;20020;-76
2024/03/11 03:12:09;;;;;;;17.30;10.60;;;333.60;2329.60;;;;;;5075278;28;20024;-74
2024/03/11 03:14:38;;;;;;;20.00;10.77;;;333.70;2329.60;;;;;;5075276;28;20066;-75
2024/03/11 03:17:07;;;;;;;18.48;10.75;;;333.70;2329.60;;;;;;5075259;28;20029;-75
2024/03/11 03:19:34;;;;;;;16.17;10.10;;;333.70;2329.60;;;;;;5075011;28;20016;-77
2024/03/11 03:22:00;;;;;;;18.45;10.70;;;333.70;2329.60;;;;;;5075015;28;20359;-75
2024/03/11 03:24:26;;;;;;;22.10;10.93;;;333.70;2329.60;;;;;;5074941;28;20123;-75
2024/03/11 03:26:52;;;;;;;19.73;11.38;;;358.40;2329.60;;;;;;5073776;28;20532;-75
2024/03/11 03:29:21;;;;;;;24.58;11.10;;;358.40;2329.60;;;;;;5074617;28;20024;-75
2024/03/11 03:31:47;;;;;;;19.77;11.60;;;358.40;2329.60;;;;;;5074902;28;20465;-76
2024/03/11 03:34:13;;;;;;;15.50;10.68;;;358.40;2329.60;;;;;;5074667;28;20070;-75
2024/03/11 03:36:38;;;;;;;21.20;11.00;;;358.50;2329.60;;;;;;5074944;28;20017;-76
2024/03/11 03:39:08;;;;;;;21.95;10.43;;;358.50;2329.60;;;;;;5074730;28;20082;-76
2024/03/11 03:41:37;;;;;;;17.73;11.02;;;358.50;2329.60;;;;;;5074700;28;20382;-76
2024/03/11 03:44:03;;;;;;;22.15;11.85;;;358.50;2329.60;;;;;;5061621;28;20023;-75
2024/03/11 03:46:30;;;;;;;19.83;10.93;;;333.50;2329.60;;;;;;5074527;28;20111;-76
2024/03/11 03:48:56;;;;;;;14.10;9.50;;;358.50;2329.60;;;;;;5074560;28;20024;-77
2024/03/11 03:51:22;;;;;;;20.55;10.10;;;358.50;2329.60;;;;;;5074328;28;20367;-76
2024/03/11 03:53:49;;;;;;;18.85;9.50;;;358.50;2329.60;;;;;;5074288;28;20016;-75
2024/03/11 03:56:15;;;;;;;16.48;11.15;;;358.50;2329.60;;;;;;5073636;28;20021;-75
2024/03/11 03:58:41;;;;;;;18.08;11.05;;;358.50;2329.60;;;;;;5074215;28;20021;-75
2024/03/11 04:01:08;;;;;;;16.85;9.63;;;358.50;2329.60;;;;;;5074273;28;20025;-76
2024/03/11 04:03:37;;;;;;;18.00;10.38;;;358.40;2329.60;;;;;;5074218;28;20026;-75
2024/03/11 04:06:05;;;;;;;16.48;9.02;;;358.40;2329.60;;;;;;5074003;28;20032;-75
2024/03/11 04:08:31;;;;;;;19.70;10.85;;;358.40;2329.60;;;;;;5074040;28;20040;-75
2024/03/11 04:10:58;;;;;;;18.50;10.88;;;358.50;2329.60;;;;;;5074130;28;20499;-77
2024/03/11 04:13:26;;;;;;;16.83;9.55;;;358.50;2329.60;;;;;;5074000;28;20138;-76
2024/03/11 04:15:54;;;;;;;20.73;9.38;;;358.50;2329.60;;;;;;5073991;28;20028;-75
2024/03/11 04:18:20;;;;;;;18.08;10.32;;;358.50;2329.60;;;;;;5073167;28;20090;-75
2024/03/11 04:20:49;;;;;;;17.50;9.98;;;358.50;2329.60;;;;;;5073702;28;20107;-75
2024/03/11 04:23:15;;;;;;;16.00;9.25;;;358.60;2329.60;;;;;;5073742;28;20082;-75
2024/03/11 04:25:41;;;;;;;18.35;10.35;;;358.60;2329.60;;;;;;5073560;28;20478;-75
2024/03/11 04:28:08;;;;;;;16.83;10.65;;;358.60;2329.60;;;;;;5073828;28;20052;-75
2024/03/11 04:30:37;;;;;;;22.38;9.75;;;358.60;2329.60;;;;;;5073350;28;20115;-75
2024/03/11 04:33:03;;;;;;;18.23;10.77;;;358.60;2329.60;;;;;;5072681;28;20028;-75
2024/03/11 04:35:31;;;;;;;19.52;9.85;;;358.60;2329.60;;;;;;5073421;28;20027;-76
2024/03/11 04:37:59;;;;;;;19.70;10.70;;;358.60;2329.60;;;;;;5072315;28;20480;-76
2024/03/11 04:40:30;;;;;;;15.93;8.88;;;358.60;2329.60;;;;;;5072999;28;20454;-75
2024/03/11 04:42:57;;;;;;;18.60;9.27;;;358.60;2329.60;;;;;;5073620;28;20074;-75
2024/03/11 04:45:24;;;;;;;18.17;10.18;;;358.50;2329.60;;;;;;5073243;28;20025;-75
2024/03/11 04:47:50;;;;;;;16.85;9.73;;;358.50;2329.60;;;;;;5072247;28;20020;-75
2024/03/11 04:50:25;;;;;;;21.90;11.27;;;358.50;2329.60;;;;;;5066698;28;20067;-75
2024/03/11 04:53:02;;;;;;;17.15;10.07;;;358.40;2329.60;;;;;;5073520;28;20027;-78
2024/03/11 04:55:29;;;;;;;19.80;11.65;;;358.40;2329.60;;;;;;5072123;28;20411;-75
2024/03/11 04:57:56;;;;;;;24.13;12.65;;;333.70;2329.60;;;;;;5068024;28;20029;-75
2024/03/11 05:00:26;;;;;;;20.98;12.13;;;333.70;2329.60;;;;;;5063047;28;20028;-77
2024/03/11 05:02:56;;;;;;;19.77;11.05;;;333.70;2329.60;;;;;;5077407;28;20024;-76
2024/03/11 05:05:22;;;;;;;19.73;10.88;;;333.60;2329.60;;;;;;5071997;28;20052;-75
2024/03/11 05:07:51;;;;;;;15.63;10.05;;;333.70;2329.60;;;;;;5069155;28;20469;-75
2024/03/11 05:10:17;;;;;;;19.02;11.13;;;333.60;2329.60;;;;;;5076290;28;20100;-75
2024/03/11 05:12:44;;;;;;;17.23;11.00;;;333.60;2329.60;;;;;;5070663;28;20125;-76
2024/03/11 05:15:10;;;;;;;21.08;10.30;;;333.60;2329.60;;;;;;5080216;28;20036;-75
2024/03/11 05:17:37;;;;;;;20.00;11.23;;;333.60;2329.60;;;;;;5077971;28;20048;-75
2024/03/11 05:20:06;;;;;;;20.60;12.38;;;333.60;2329.60;;;;;;5056571;28;20119;-75
2024/03/11 05:22:34;;;;;;;18.15;10.30;;;333.60;2329.60;;;;;;5071188;28;20488;-77
2024/03/11 05:25:00;;;;;;;21.52;10.73;;;333.60;2329.60;;;;;;5071270;28;20037;-79
2024/03/11 05:27:26;;;;;;;18.33;11.00;;;333.60;2329.60;;;;;;5080316;28;20029;-75
2024/03/11 05:29:52;;;;;;;20.67;10.95;;;333.60;2329.60;;;;;;5074770;28;20044;-75
2024/03/11 05:32:18;;;;;;;18.42;10.95;;;333.60;2329.60;;;;;;5071440;28;20111;-77
2024/03/11 05:34:44;;;;;;;20.48;11.65;;;333.60;2329.60;;;;;;5060645;28;20021;-77
2024/03/11 05:37:10;;;;;;;19.10;11.00;;;333.60;2329.60;;;;;;5067664;28;20047;-76
2024/03/11 05:39:36;;;;;;;26.38;11.90;;;333.60;2329.60;;;;;;5071838;28;20035;-76
2024/03/11 05:42:02;;;;;;;16.73;10.93;;;333.70;2329.60;;;;;;5068078;28;20028;-76
2024/03/11 05:44:29;;;;;;;19.15;10.23;;;333.70;2329.60;;;;;;5062761;28;20116;-75
2024/03/11 05:46:54;;;;;;;20.25;11.63;;;358.40;2329.60;;;;;;5064381;28;20500;-74
2024/03/11 05:49:21;;;;;;;16.88;9.55;;;358.40;2329.60;;;;;;5071204;28;20025;-80
2024/03/11 05:51:47;;;;;;;19.70;10.38;;;358.40;2329.60;;;;;;5065063;28;20102;-75
2024/03/11 05:54:17;;;;;;;20.83;10.60;;;358.40;2329.60;;;;;;5062967;28;20478;-74
2024/03/11 05:56:58;;;;;;;16.73;9.82;;;358.40;2329.60;;;;;;5072006;28;20036;-75
2024/03/11 05:59:27;;;;;;;22.40;11.02;;;358.40;2329.60;;;;;;5074100;28;20092;-73
2024/03/11 06:01:57;;;;;;;25.27;12.20;;;333.70;2329.60;;;;;;5066919;28;20104;-75
2024/03/11 06:04:25;;;;;;;18.15;9.93;;;333.70;2329.60;;;;;;5072987;28;20513;-74
2024/03/11 06:06:51;;;;;;;16.70;10.75;;;333.70;2329.60;;;;;;5070098;28;20028;-74
2024/03/11 06:09:17;;;;;;;15.10;9.57;;;333.70;2329.60;;;;;;5077521;28;20040;-76
2024/03/11 06:11:45;;;;;;;20.33;10.48;;;333.60;2329.60;;;;;;5069415;28;20033;-75
2024/03/11 06:14:14;;;;;;;18.48;9.82;;;333.60;2329.60;;;;;;5065547;28;20013;-75
2024/03/11 06:16:42;;;;;;;19.85;11.35;;;333.50;2329.60;;;;;;5069733;28;20032;-76
2024/03/11 06:19:10;;;;;;;19.48;9.65;;;333.50;2329.60;;;;;;5075210;28;20020;-75
2024/03/11 06:21:37;;;;;;;18.58;11.35;;;333.20;2329.60;;;;;;5074181;28;20488;-75
2024/03/11 06:24:03;;;;;;;19.23;10.77;;;333.40;2329.60;;;;;;5072684;28;20104;-77
2024/03/11 06:26:31;;;;;;;17.35;9.88;;;333.40;2329.60;;;;;;5074439;28;20115;-78
2024/03/11 06:28:57;;;;;;;17.55;10.88;;;333.50;2329.60;;;;;;5079474;28;20035;-76
2024/03/11 06:31:23;;;;;;;18.45;10.27;;;333.50;2329.60;;;;;;5085444;28;20068;-79
2024/03/11 06:33:50;;;;;;;18.63;11.50;;;333.50;2329.60;;;;;;5075968;28;20021;-78
2024/03/11 06:36:17;;;;;;;20.50;10.52;;;333.50;2329.60;;;;;;5073815;28;20489;-77
2024/03/11 06:38:48;;;;;;;20.95;10.27;;;333.50;2329.60;;;;;;5070568;28;20039;-79
2024/03/11 06:41:17;;;;;;;16.58;10.38;;;333.50;2329.60;;;;;;5068310;28;20029;-79
2024/03/11 06:43:45;;;;;;;23.85;10.70;;;333.50;2329.60;;;;;;5083758;28;20028;-80
2024/03/11 06:46:15;;;;;;;17.65;10.82;;;333.50;2329.60;;;;;;5082165;28;20528;-79
2024/03/11 06:48:42;;;;;;;14.68;8.80;;;333.50;2329.60;;;;;;5074927;28;20102;-78
2024/03/11 06:51:08;;;;;;;15.93;9.05;;;333.50;2329.60;;;;;;5079262;28;20507;-77
2024/03/11 06:53:35;;;;;;;15.80;9.13;;;333.60;2329.60;;;;;;5091167;28;20036;-79
2024/03/11 06:56:02;;;;;;;16.80;10.82;;;333.60;2329.60;;;;;;5074181;28;20060;-78
2024/03/11 06:58:28;;;;;;;16.08;9.98;;;333.60;2329.60;;;;;;5074411;28;20501;-79
2024/03/11 07:00:58;;;;;;;21.05;8.13;;;333.60;2329.60;;;;;;5074242;28;20024;-79
2024/03/11 07:03:26;;;;;;;14.90;9.07;;;333.60;2329.60;;;;;;5074375;28;20028;-79
2024/03/11 07:05:52;;;;;;;21.38;10.00;;;333.60;2329.60;;;;;;5059012;28;20124;-79
2024/03/11 07:08:17;;;;;;;17.55;8.95;;;333.60;2329.60;;;;;;5054327;28;20060;-78
2024/03/11 07:10:43;;;;;;;15.02;8.55;;;333.60;2329.60;;;;;;5054227;28;20040;-79
2024/03/11 07:13:09;;;;;;;12.82;6.85;;;333.60;2329.60;;;;;;5054284;28;20021;-79
2024/03/11 07:15:35;;;;;;;17.45;10.20;;;333.60;2329.60;;;;;;5054252;28;20067;-80
2024/03/11 07:18:01;;;;;;;14.00;8.18;;;333.70;2329.60;;;;;;5054066;28;20370;-78
2024/03/11 07:20:27;;;;;;;16.13;8.70;;;333.70;2329.60;;;;;;5058009;28;20095;-79
2024/03/11 07:22:52;;;;;;;17.65;8.25;;;333.70;2329.60;;;;;;5073755;28;20103;-78
2024/03/11 07:25:19;;;;;;;17.20;8.52;;;333.70;2329.60;;;;;;5074849;28;20039;-79
2024/03/11 07:27:48;;;;;;;23.15;9.15;;;333.70;2329.60;;;;;;5075174;28;20044;-80
2024/03/11 07:30:18;;;;;;;18.80;9.10;;;333.70;2329.60;;;;;;5073133;28;20094;-78
2024/03/11 07:32:44;;;;;;;18.40;9.68;;;358.40;2329.60;;;;;;5073728;28;20128;-78
2024/03/11 07:35:10;;;;;;;14.80;9.25;;;358.40;2329.60;;;;;;5074796;28;20521;-80
2024/03/11 07:37:40;;;;;;;11.18;7.47;;;358.40;2329.60;;;;;;5073624;28;20039;-79
2024/03/11 07:40:10;;;;;;;12.35;7.20;;;358.40;2329.60;;;;;;5073196;28;20116;-78
2024/03/11 07:42:37;;;;;;;13.95;9.13;;;333.70;2329.60;;;;;;5073504;28;20093;-78
2024/03/11 07:45:04;;;;;;;20.80;8.95;;;358.40;2329.60;;;;;;5072962;28;20032;-78
2024/03/11 07:47:29;;;;;;;15.63;8.23;;;333.70;2329.60;;;;;;5073606;28;20022;-79
2024/03/11 07:49:58;;;;;;;16.15;8.35;;;333.70;2329.60;;;;;;5073338;28;20120;-77
2024/03/11 07:52:24;;;;;;;16.05;8.55;;;333.70;2329.60;;;;;;5073320;28;20089;-80
2024/03/11 07:54:50;;;;;;;13.93;8.52;;;358.40;2329.60;;;;;;5074382;28;20469;-78
2024/03/11 07:57:16;;;;;;;16.35;8.43;;;358.40;2329.60;;;;;;5073543;28;20111;-79
2024/03/11 07:59:43;;;;;;;22.48;9.18;;;358.40;2329.60;;;;;;5074264;28;20069;-79
2024/03/11 08:02:08;;;;;;;22.33;11.35;;;358.40;2329.60;;;;;;5073249;28;20520;-78
2024/03/11 08:04:35;;;;;;;16.40;8.68;;;358.40;2329.60;;;;;;5074310;28;20112;-78
2024/03/11 08:07:02;;;;;;;15.75;9.00;;;358.40;2329.60;;;;;;5072946;28;20367;-79
2024/03/11 08:09:30;;;;;;;20.08;9.57;;;358.50;2329.60;;;;;;5073225;28;20035;-80
2024/03/11 08:11:57;;;;;;;14.77;8.70;;;358.50;2329.60;;;;;;5073048;28;20386;-75
2024/03/11 08:14:23;;;;;;;21.63;9.20;;;358.50;2329.60;;;;;;5074013;28;20548;-77
2024/03/11 08:16:51;;;;;;;15.80;8.07;;;358.50;2329.60;;;;;;5073215;28;20032;-77
2024/03/11 08:19:17;;;;;;;16.50;8.98;;;358.50;2329.60;;;;;;5073922;28;20024;-78
2024/03/11 08:21:43;;;;;;;14.70;9.05;;;358.50;2329.60;;;;;;5072947;28;20060;-77
2024/03/11 08:24:12;;;;;;;14.10;8.82;;;358.50;2329.60;;;;;;5072397;28;20035;-77
2024/03/11 08:26:38;;;;;;;14.02;8.82;;;358.50;2329.60;;;;;;5073814;28;20021;-76
2024/03/11 08:29:04;;;;;;;14.13;8.57;;;358.50;2329.60;;;;;;5073585;28;20499;-78
2024/03/11 08:31:30;;;;;;;17.55;9.23;;;358.60;2329.60;;;;;;5073598;28;20059;-78
2024/03/11 08:33:56;;;;;;;17.27;8.02;;;358.60;2329.60;;;;;;5073553;28;20375;-76
2024/03/11 08:36:24;;;;;;;15.10;8.95;;;358.60;2329.60;;;;;;5073338;28;20020;-79
2024/03/11 08:38:51;;;;;;;17.90;8.43;;;358.70;2329.60;;;;;;5052376;28;20049;-77
2024/03/11 08:41:17;;;;;;;14.15;8.65;;;358.70;2329.60;;;;;;5071913;28;20380;-78
2024/03/11 08:43:44;;;;;;;18.95;8.65;;;358.80;2329.60;;;;;;5072071;28;20449;-78
2024/03/11 08:46:11;;;;;;;24.83;8.90;;;358.80;2329.60;;;;;;5071333;28;20113;-76
2024/03/11 09:08:18;;;;;;;17.80;9.10;;;358.70;2329.60;;;;;;5098305;27;20831;-77
2024/03/11 09:10:45;;;;;;;12.80;8.18;;;359.00;2329.60;;;;;;5069051;28;20131;-78
2024/03/11 09:13:12;;;;;;;17.90;9.20;;;358.90;2329.60;;;;;;5065004;28;20017;-78
2024/03/11 09:15:37;;;;;;;17.23;8.95;;;358.90;2329.60;;;;;;5078384;28;20046;-77
2024/03/11 09:18:04;;;;;;;14.40;9.57;;;358.90;2329.60;;;;;;5085861;28;20055;-76
2024/03/11 09:20:31;;;;;;;16.80;9.02;;;358.90;2329.60;;;;;;5083540;28;20109;-75
2024/03/11 09:22:57;;;;;;;15.38;7.82;;;358.90;2329.60;;;;;;5066374;28;20518;-77
2024/03/11 09:25:24;;;;;;;18.83;8.60;;;358.90;2329.60;;;;;;5080531;28;20108;-77
2024/03/11 09:28:03;;;;;;;17.88;8.65;;;358.90;2329.60;;;;;;5059504;28;20098;-76
2024/03/11 09:30:31;;;;;;;19.90;9.10;;;359.00;2329.60;;;;;;5071213;28;20051;-76
2024/03/11 09:32:57;;;;;;;14.15;8.68;;;359.00;2329.60;;;;;;5083472;28;20040;-76
2024/03/11 09:35:24;;;;;;;23.85;8.95;;;359.00;2329.60;;;;;;5087734;28;20494;-75
2024/03/11 09:37:53;;;;;;;17.30;9.55;;;359.10;2329.60;;;;;;5087805;28;20508;-76
2024/03/11 09:40:23;;;;;;;15.45;7.63;;;359.10;2329.60;;;;;;5076998;28;20390;-77
2024/03/11 09:42:50;;;;;;;20.60;9.85;;;359.10;2329.60;;;;;;5066767;28;20116;-77
2024/03/11 09:45:18;;;;;;;18.00;8.95;;;359.20;2329.60;;;;;;5082792;28;20071;-75
2024/03/11 09:47:52;;;;;;;12.88;7.50;;;359.20;2329.60;;;;;;5065734;28;20116;-76
2024/03/11 09:50:28;;;;;;;12.23;7.25;;;359.20;2329.60;;;;;;5080643;28;20104;-77
2024/03/11 09:53:06;;;;;;;14.07;7.32;;;359.20;2329.60;;;;;;5059336;28;20032;-78
2024/03/11 09:55:35;;;;;;;15.23;8.55;;;359.20;2329.60;;;;;;5079359;28;20031;-79
2024/03/11 09:58:06;;;;;;;17.88;9.02;;;359.20;2329.60;;;;;;5065519;28;20033;-80
2024/03/11 10:00:33;;;;;;;13.63;8.48;;;359.20;2329.60;;;;;;5064936;28;20086;-80
2024/03/11 10:03:02;;;;;;;16.15;9.05;;;359.20;2329.60;;;;;;5079791;28;20029;-80
2024/03/11 10:05:32;;;;;;;21.40;8.05;;;359.30;2329.60;;;;;;5066316;28;20116;-78
2024/03/11 10:08:04;;;;;;;21.50;9.52;;;359.30;2329.60;;;;;;5045468;28;20040;-77
2024/03/11 10:10:30;;;;;;;14.82;8.30;;;359.30;2329.60;;;;;;5037798;28;20471;-79
2024/03/11 10:12:58;;;;;;;17.55;8.25;;;359.20;2329.60;;;;;;5056580;28;20194;-77
2024/03/11 10:15:32;;;;;;;15.15;7.32;;;384.00;2329.60;;;;;;5058991;28;20017;-77
2024/03/11 10:18:31;;;;;;;13.75;7.65;;;384.00;2329.60;;;;;;5053379;28;20068;-78
2024/03/11 10:21:00;;;;;;;18.73;7.75;;;384.10;2329.60;;;;;;5051248;28;20470;-78
2024/03/11 10:23:27;;;;;;;12.07;7.05;;;384.20;2329.60;;;;;;5051602;28;20036;-78
2024/03/11 10:26:17;;;;;;;14.63;8.75;;;384.20;2329.60;;;;;;5051961;28;20111;-77
2024/03/11 10:28:49;;;;;;;17.33;9.15;;;384.20;2329.60;;;;;;5040851;28;20386;-77
2024/03/11 10:31:24;;;;;;;18.67;8.77;;;384.30;2329.60;;;;;;5050245;28;20047;-78
2024/03/11 10:33:56;;;;;;;17.13;8.25;;;384.40;2329.60;;;;;;5067045;28;20135;-78
2024/03/11 10:36:25;;;;;;;16.80;8.23;;;384.50;2329.60;;;;;;5049389;28;20152;-80
2024/03/11 10:38:54;;;;;;;17.85;7.75;;;384.50;2329.60;;;;;;5038069;28;20029;-78
2024/03/11 10:41:21;;;;;;;26.60;7.95;;;384.70;2329.60;;;;;;5056710;28;20029;-77
2024/03/11 10:43:51;;;;;;;16.50;6.65;;;384.80;2329.60;;;;;;5046106;28;20134;-77
2024/03/11 10:46:22;;;;;;;21.33;7.63;;;384.90;2329.60;;;;;;5045256;28;20058;-78
2024/03/11 10:48:50;;;;;;;20.60;8.32;;;409.60;2355.20;;;;;;5063323;28;20039;-75
2024/03/11 10:51:21;;;;;;;21.92;7.47;;;409.70;2355.20;;;;;;5066808;28;20108;-79
2024/03/11 10:53:51;;;;;;;15.70;7.28;;;409.70;2355.20;;;;;;5045548;28;20041;-77
2024/03/11 10:56:24;;;;;;;15.25;7.65;;;409.70;2355.20;;;;;;5032745;28;20045;-77
2024/03/11 10:58:54;;;;;;;16.00;7.90;;;409.70;2355.20;;;;;;5065992;28;20377;-77
2024/03/11 11:01:33;;;;;;;12.60;7.25;;;409.70;2355.20;;;;;;5039631;28;20029;-79
2024/03/11 11:04:19;;;;;;;16.38;8.15;;;409.70;2355.20;;;;;;5060709;28;20051;-76
2024/03/11 11:06:48;;;;;;;12.35;6.80;;;409.80;2355.20;;;;;;5064793;28;20072;-77
2024/03/11 11:09:15;;;;;;;24.67;7.47;;;409.90;2355.20;;;;;;5067111;28;20074;-76
2024/03/11 11:11:51;;;;;;;16.35;6.75;;;409.90;2355.20;;;;;;5065755;28;20027;-78
2024/03/11 11:14:21;;;;;;;14.27;6.17;;;410.00;2355.20;;;;;;5067352;28;20025;-74
2024/03/11 11:16:51;;;;;;;21.70;7.15;;;410.00;2355.20;;;;;;5064965;28;20037;-75
2024/03/11 11:19:23;;;;;;;13.25;6.15;;;410.10;2355.20;;;;;;5070575;28;20485;-75
2024/03/11 11:21:52;;;;;;;14.57;6.57;;;410.10;2355.20;;;;;;5061868;28;20033;-76
2024/03/11 11:24:30;;;;;;;13.40;5.70;;;410.10;2355.20;;;;;;5046522;28;20529;-76
2024/03/11 11:27:01;;;;;;;17.65;6.85;;;410.00;2355.20;;;;;;5056084;28;20714;-75
2024/03/11 11:29:29;;;;;;;16.35;9.10;;;410.00;2355.20;;;;;;5053798;28;20029;-76
2024/03/11 11:32:03;;;;;;;15.23;8.10;;;410.00;2355.20;;;;;;5047332;28;20123;-74
2024/03/11 11:34:48;;;;;;;14.35;6.57;;;410.20;2355.20;;;;;;5045761;28;20033;-77
2024/03/11 11:37:21;;;;;;;19.48;7.28;;;410.30;2329.60;;;;;;5059528;28;20127;-75
2024/03/11 11:39:48;;;;;;;18.13;7.60;;;410.40;2252.80;;;;;;5062183;28;20104;-74
2024/03/11 11:42:34;;;;;;;17.60;6.25;;;410.40;2329.60;;;;;;5064040;28;20092;-73
2024/03/11 11:45:00;;;;;;;14.00;6.63;;;410.50;2355.20;;;;;;5064139;28;20086;-77
2024/03/11 11:47:27;;;;;;;14.60;6.95;;;410.40;2355.20;;;;;;5064833;28;20032;-77
2024/03/11 11:49:54;;;;;;;21.45;7.00;;;410.30;2355.20;;;;;;5070203;28;20025;-74
2024/03/11 11:52:22;;;;;;;22.45;7.55;;;410.20;2355.20;;;;;;5071811;28;20028;-76
2024/03/11 11:54:52;;;;;;;16.80;6.75;;;410.10;2329.60;;;;;;5066835;28;20024;-78
2024/03/11 11:57:21;;;;;;;14.98;6.25;;;410.10;2304.00;;;;;;5057972;28;20551;-75
2024/03/11 11:59:53;;;;;;;14.98;6.05;;;410.10;2329.60;;;;;;5059392;28;20040;-78
2024/03/11 12:02:29;;;;;;;18.02;6.47;;;410.20;2355.20;;;;;;5048131;28;20033;-77
2024/03/11 12:05:07;;;;;;;20.23;6.43;;;410.20;2355.20;;;;;;5034383;28;20478;-76
2024/03/11 12:07:40;;;;;;;13.50;5.63;;;410.30;2329.60;;;;;;5063149;28;20064;-76
2024/03/11 12:10:07;;;;;;;17.50;6.85;;;410.30;2278.40;;;;;;5071677;28;20029;-75
2024/03/11 12:12:43;;;;;;;12.95;6.25;;;410.40;2329.60;;;;;;5069152;28;20023;-76
2024/03/11 12:15:23;;;;;;;16.38;6.57;;;410.40;2329.60;;;;;;5035246;28;20443;-76
2024/03/11 12:17:53;;;;;;;15.93;5.13;;;410.40;2278.40;;;;;;5061847;28;20048;-76
2024/03/11 12:22:59;;;;;;;13.85;5.82;;;410.50;2252.80;;;;;;5066567;28;20474;-75
2024/03/11 12:25:28;;;;;;;17.17;6.38;;;410.50;2304.00;;;;;;5046503;28;20466;-75
2024/03/11 12:28:03;;;;;;;21.73;7.47;;;435.20;2227.20;;;;;;5062921;28;20029;-75
2024/03/11 12:30:36;;;;;;;18.42;9.05;;;435.20;2227.20;;;;;;5072750;28;20025;-75
2024/03/11 12:33:05;;;;;;;21.08;6.75;;;435.40;2252.80;;;;;;5066227;28;20037;-75